Time;durP1;ratioP1;P1;durP2;ratioP2;P2;SDS_P1;SDS_P2;PMS_P1;PMS_P2;Temp;Humidity;BMP_temperature;BMP_pressure;BME280_temperature;BME280_humidity;BME280_pressure;Samples;Min_cycle;Max_cycle;Signal;HPM_P1;HPM_P2
2022/12/25 00:00:52;;;;;;;5.95;3.55;;;;;;;9.29;69.53;94971.25;4171115;28;20091;-79
2022/12/25 00:02:54;;;;;;;6.00;3.70;;;;;;;9.30;70.57;94967.66;4167879;28;20071;-74
2022/12/25 00:04:56;;;;;;;6.30;3.88;;;;;;;9.26;69.28;94975.94;4167496;28;20067;-76
2022/12/25 00:06:58;;;;;;;6.35;3.88;;;;;;;9.21;68.93;94976.38;4173799;28;20065;-74
2022/12/25 00:09:00;;;;;;;4.95;3.92;;;;;;;9.14;69.23;94983.13;4152108;28;20045;-76
2022/12/25 00:11:05;;;;;;;7.03;3.72;;;;;;;9.11;69.36;94983.44;4174027;28;20049;-76
2022/12/25 00:13:07;;;;;;;7.38;4.00;;;;;;;9.07;68.95;94982.06;4172093;28;20061;-76
2022/12/25 00:15:09;;;;;;;6.25;3.88;;;;;;;8.96;69.24;94996.13;4161592;28;20065;-75
2022/12/25 00:17:10;;;;;;;8.27;3.92;;;;;;;8.87;70.22;94995.19;4172413;28;20057;-76
2022/12/25 00:19:12;;;;;;;4.82;3.42;;;;;;;8.89;70.22;94995.88;4162266;28;20076;-79
2022/12/25 00:21:14;;;;;;;6.38;3.60;;;;;;;8.83;70.30;94988.59;4165741;28;20084;-75
2022/12/25 00:23:16;;;;;;;5.93;3.53;;;;;;;8.81;69.83;94993.13;4175722;28;20291;-79
2022/12/25 00:25:18;;;;;;;4.82;2.85;;;;;;;8.73;70.24;94987.78;4171216;28;20389;-75
2022/12/25 00:27:19;;;;;;;8.00;4.03;;;;;;;8.72;70.84;94993.97;4173289;28;20053;-76
2022/12/25 00:29:21;;;;;;;6.05;3.70;;;;;;;8.76;70.46;94996.16;4177693;28;20162;-75
2022/12/25 00:31:24;;;;;;;5.50;3.58;;;;;;;8.74;70.58;94997.28;4177182;28;20235;-78
2022/12/25 00:33:25;;;;;;;5.28;3.72;;;;;;;8.76;70.51;94992.75;4183124;28;20072;-78
2022/12/25 00:35:27;;;;;;;4.82;3.47;;;;;;;8.80;70.83;95001.94;4179357;28;20048;-75
2022/12/25 00:37:29;;;;;;;5.35;3.63;;;;;;;8.78;70.67;94993.44;4161654;28;20477;-74
2022/12/25 00:39:31;;;;;;;5.90;3.92;;;;;;;8.76;70.28;94996.16;4170813;28;20052;-75
2022/12/25 00:43:53;;;;;;;5.65;3.33;;;;;;;8.74;70.47;95007.72;4163520;28;20538;-76
2022/12/25 00:46:00;;;;;;;5.15;3.40;;;;;;;8.80;69.93;95004.56;4171213;28;20049;-74
2022/12/25 00:48:02;;;;;;;4.82;3.20;;;;;;;8.74;69.95;95010.34;4170808;28;20412;-76
2022/12/25 00:50:05;;;;;;;5.43;3.38;;;;;;;8.80;69.94;95007.16;4157521;28;20054;-75
2022/12/25 00:52:07;;;;;;;4.80;3.42;;;;;;;8.83;70.06;95006.88;4175150;28;20057;-75
2022/12/25 00:54:09;;;;;;;4.78;3.40;;;;;;;8.86;69.01;95013.59;4157077;28;20547;-74
2022/12/25 00:56:11;;;;;;;5.75;3.80;;;;;;;8.92;69.40;95015.66;4173643;28;20452;-75
2022/12/25 00:58:13;;;;;;;4.70;3.45;;;;;;;8.88;69.58;95009.88;4159134;28;20334;-76
2022/12/25 01:00:15;;;;;;;4.93;3.28;;;;;;;8.91;69.73;95016.63;4176286;28;20053;-77
2022/12/25 01:02:22;;;;;;;6.85;3.22;;;;;;;8.93;69.01;95025.16;4176324;28;20144;-76
2022/12/25 01:04:24;;;;;;;4.13;2.88;;;;;;;8.89;68.92;95015.94;4175791;28;20052;-79
2022/12/25 01:06:26;;;;;;;5.57;3.20;;;;;;;8.92;68.60;95008.63;4177136;28;20084;-78
2022/12/25 01:08:29;;;;;;;4.78;2.97;;;;;;;8.96;68.89;95006.56;4177224;28;20055;-75
2022/12/25 01:10:31;;;;;;;4.70;2.78;;;;;;;8.91;68.39;95011.41;4168525;28;20369;-73
2022/12/25 01:12:35;;;;;;;4.20;2.65;;;;;;;8.88;68.53;95009.88;4158170;28;20095;-75
2022/12/25 01:14:37;;;;;;;5.47;2.90;;;;;;;8.77;68.70;95008.25;4173656;28;20148;-75
2022/12/25 01:16:38;;;;;;;3.78;2.47;;;;;;;8.78;68.55;95015.13;4166651;28;20067;-74
2022/12/25 01:18:42;;;;;;;4.80;2.95;;;;;;;8.71;68.08;95015.81;4159629;28;20045;-76
2022/12/25 01:20:44;;;;;;;3.97;2.75;;;;;;;8.74;68.53;95012.94;4161196;28;20081;-76
2022/12/25 01:22:46;;;;;;;3.97;2.70;;;;;;;8.69;68.58;95015.13;4159352;28;20139;-76
2022/12/25 01:24:48;;;;;;;4.35;2.47;;;;;;;8.72;68.37;95014.88;4177327;28;20264;-76
2022/12/25 01:26:49;;;;;;;3.60;2.35;;;;;;;8.73;68.16;95017.34;4160031;28;20429;-74
2022/12/25 01:28:52;;;;;;;3.95;2.55;;;;;;;8.68;68.42;95014.31;4176587;28;20389;-76
2022/12/25 01:30:54;;;;;;;4.03;2.50;;;;;;;8.72;68.34;95014.88;4177600;28;20111;-75
2022/12/25 01:32:56;;;;;;;5.05;2.90;;;;;;;8.73;68.75;95021.72;4177991;28;20273;-76
2022/12/25 01:34:58;;;;;;;4.60;3.08;;;;;;;8.68;68.31;95013.50;4178596;28;20052;-76
2022/12/25 01:37:00;;;;;;;3.83;2.65;;;;;;;8.60;68.81;95011.56;4170947;28;20064;-75
2022/12/25 01:39:03;;;;;;;5.00;2.58;;;;;;;8.66;69.16;95015.44;4171521;28;20482;-76
2022/12/25 01:41:05;;;;;;;5.07;3.13;;;;;;;8.67;68.59;95011.84;4160293;28;20187;-75
2022/12/25 01:43:33;;;;;;;5.30;3.00;;;;;;;8.65;69.13;95016.38;4173695;28;20057;-75
2022/12/25 01:45:41;;;;;;;4.40;2.83;;;;;;;8.57;68.43;95023.13;4174423;28;20053;-76
2022/12/25 01:47:43;;;;;;;4.20;2.80;;;;;;;8.50;69.04;95016.81;4160415;28;20509;-76
2022/12/25 01:49:47;;;;;;;4.20;2.95;;;;;;;8.43;69.12;95015.72;4178426;28;20048;-79
2022/12/25 01:51:59;;;;;;;6.20;3.42;;;;;;;8.47;69.16;95016.28;4160365;28;20406;-75
2022/12/25 01:54:04;;;;;;;6.10;3.22;;;;;;;8.43;68.99;95009.66;4175135;28;20053;-77
2022/12/25 01:56:07;;;;;;;6.22;3.30;;;;;;;8.44;69.30;95003.50;4164897;28;20136;-76
2022/12/25 01:58:09;;;;;;;8.33;3.13;;;;;;;8.48;69.33;95021.34;4145000;28;20553;-76
2022/12/25 02:00:11;;;;;;;3.80;3.03;;;;;;;8.47;68.40;95011.03;4139995;28;20058;-76
2022/12/25 02:02:13;;;;;;;4.32;3.00;;;;;;;8.44;68.67;95012.16;4172207;28;20083;-76
2022/12/25 02:04:37;;;;;;;4.93;3.03;;;;;;;8.43;68.90;95020.94;4172430;28;20061;-78
2022/12/25 02:06:40;;;;;;;5.97;3.17;;;;;;;8.43;68.61;95023.53;4177776;28;20087;-76
2022/12/25 02:08:42;;;;;;;4.63;3.45;;;;;;;8.33;68.97;95022.72;4176109;28;20053;-77
2022/12/25 02:10:44;;;;;;;4.78;3.03;;;;;;;8.37;68.92;95018.88;4177436;28;20170;-77
2022/12/25 02:12:47;;;;;;;5.88;3.00;;;;;;;8.37;69.18;95027.50;4177375;28;20056;-76
2022/12/25 02:14:50;;;;;;;6.57;3.50;;;;;;;8.45;68.34;95023.41;4159170;28;20057;-77
2022/12/25 02:17:01;;;;;;;6.95;3.28;;;;;;;8.46;68.43;95030.31;4176658;28;20057;-77
2022/12/25 02:19:10;;;;;;;5.75;3.60;;;;;;;8.39;68.23;95028.19;4156376;28;20051;-76
2022/12/25 02:21:39;;;;;;;4.78;2.95;;;;;;;8.34;68.68;95021.72;4158714;28;20127;-77
2022/12/25 02:23:56;;;;;;;5.85;3.03;;;;;;;8.28;68.38;95023.13;4176522;28;20482;-74
2022/12/25 02:26:21;;;;;;;4.57;3.13;;;;;;;8.25;68.91;95022.56;4176728;28;20056;-76
2022/12/25 02:28:37;;;;;;;5.88;3.00;;;;;;;8.20;68.47;95022.97;4173387;28;20053;-76
2022/12/25 02:30:55;;;;;;;5.75;3.45;;;;;;;8.10;69.13;95015.13;4187777;28;20049;-76
2022/12/25 02:35:40;;;;;;;8.23;3.70;;;;;;;8.03;69.19;95015.81;4146276;28;20303;-79
2022/12/25 02:37:56;;;;;;;6.03;3.25;;;;;;;8.13;69.01;95011.41;4169530;28;20326;-77
2022/12/25 02:40:00;;;;;;;5.82;2.35;;;;;;;8.19;68.49;95018.69;4176043;28;20515;-75
2022/12/25 02:42:07;;;;;;;4.10;2.70;;;;;;;8.18;68.56;95020.50;4164108;28;20052;-77
2022/12/25 03:07:52;;;;;;;4.47;2.92;;;;;;;8.26;65.96;95032.03;4148685;28;20072;-75
2022/12/25 03:12:49;;;;;;;5.35;2.45;;;;;;;8.20;66.40;95042.06;4158956;28;20092;-76
2022/12/25 03:17:11;;;;;;;5.00;2.60;;;;;;;8.17;65.65;95042.34;4176523;28;20057;-75
2022/12/25 03:28:39;;;;;;;4.85;2.90;;;;;;;8.15;65.08;95054.72;4168834;28;19924;-76
2022/12/25 03:33:27;;;;;;;3.50;2.65;;;;;;;8.23;65.24;95061.03;4177324;28;20053;-75
2022/12/25 03:36:03;;;;;;;5.27;2.83;;;;;;;8.25;65.85;95054.69;4192461;28;20045;-75
2022/12/25 04:38:08;;;;;;;5.43;3.35;;;;;;;7.71;67.36;95111.56;4175851;28;20057;-76
2022/12/25 04:40:10;;;;;;;6.07;3.55;;;;;;;7.76;67.31;95122.41;4174372;28;20469;-76
2022/12/25 04:42:12;;;;;;;5.78;3.53;;;;;;;7.81;67.15;95114.22;4174827;28;20455;-78
2022/12/25 04:44:14;;;;;;;6.32;3.75;;;;;;;7.83;67.34;95117.53;4156576;28;20358;-74
2022/12/25 04:46:16;;;;;;;5.47;3.72;;;;;;;7.83;67.07;95132.31;4172535;28;20504;-75
2022/12/25 04:48:17;;;;;;;7.03;3.88;;;;;;;7.76;67.51;95135.44;4175339;28;20129;-75
2022/12/25 04:50:19;;;;;;;5.22;3.25;;;;;;;7.77;67.00;95138.91;4175016;28;20049;-75
2022/12/25 04:52:21;;;;;;;7.03;3.78;;;;;;;7.69;67.84;95138.72;4174881;28;20103;-74
2022/12/25 04:54:22;;;;;;;6.00;3.50;;;;;;;7.70;68.03;95133.38;4174600;28;20052;-77
2022/12/25 04:56:24;;;;;;;6.82;3.80;;;;;;;7.66;68.01;95132.00;4175654;28;20357;-75
2022/12/25 04:58:26;;;;;;;5.88;3.80;;;;;;;7.66;67.83;95139.81;4161509;28;20467;-76
2022/12/25 05:00:28;;;;;;;5.13;3.63;;;;;;;7.69;67.76;95138.72;4174666;28;20057;-77
2022/12/25 05:02:30;;;;;;;5.72;3.80;;;;;;;7.69;68.12;95136.13;4167241;28;20081;-76
2022/12/25 05:04:32;;;;;;;7.28;4.07;;;;;;;7.57;68.63;95136.22;4159735;28;20120;-76
2022/12/25 05:06:34;;;;;;;6.45;3.88;;;;;;;7.61;68.64;95134.16;4149720;28;20111;-78
2022/12/25 05:08:36;;;;;;;7.75;3.67;;;;;;;7.32;69.01;95136.63;4175789;28;20057;-79
2022/12/25 05:10:39;;;;;;;5.60;3.92;;;;;;;7.22;69.32;95131.34;4176957;28;20103;-78
2022/12/25 05:12:41;;;;;;;8.38;3.78;;;;;;;7.32;68.98;95137.44;4175713;28;20052;-75
2022/12/25 05:14:42;;;;;;;7.30;3.60;;;;;;;7.40;69.29;95131.59;4174536;28;20438;-74
2022/12/25 05:16:44;;;;;;;6.47;3.55;;;;;;;7.51;68.09;95133.31;4163134;28;20073;-76
2022/12/25 05:18:50;;;;;;;6.43;3.47;;;;;;;7.52;68.41;95134.94;4159980;28;20053;-75
2022/12/25 05:20:54;;;;;;;7.10;3.58;;;;;;;7.53;67.87;95132.22;4162322;28;20103;-75
2022/12/25 05:22:56;;;;;;;5.35;2.90;;;;;;;7.53;67.43;95139.22;4172223;28;20098;-76
2022/12/25 05:24:59;;;;;;;6.90;3.53;;;;;;;7.50;67.71;95137.66;4174921;28;20087;-75
2022/12/25 05:27:00;;;;;;;7.33;3.40;;;;;;;7.51;68.10;95138.50;4174754;28;20045;-76
2022/12/25 05:29:02;;;;;;;5.10;2.65;;;;;;;7.47;67.45;95137.94;4174811;28;20428;-76
2022/12/25 05:31:04;;;;;;;4.85;2.60;;;;;;;7.51;66.98;95133.31;4175320;28;20362;-75
2022/12/25 05:33:06;;;;;;;5.25;2.92;;;;;;;7.53;67.04;95141.81;4157330;28;20136;-77
2022/12/25 05:35:08;;;;;;;5.47;2.85;;;;;;;7.61;66.52;95148.97;4162210;28;20077;-77
2022/12/25 05:37:10;;;;;;;5.65;2.55;;;;;;;7.64;66.04;95149.56;4174815;28;20061;-77
2022/12/25 05:39:11;;;;;;;5.13;2.78;;;;;;;7.62;65.73;95143.63;4175150;28;20156;-76
2022/12/25 05:41:13;;;;;;;5.55;2.17;;;;;;;7.71;65.50;95145.47;4175280;28;20103;-76
2022/12/25 05:43:15;;;;;;;5.82;2.75;;;;;;;7.72;65.07;95143.66;4174687;28;20057;-74
2022/12/25 05:45:17;;;;;;;4.10;2.50;;;;;;;7.68;64.11;95150.94;4175735;28;20064;-75
2022/12/25 05:47:19;;;;;;;8.15;2.75;;;;;;;7.78;64.19;95151.78;4171291;28;20053;-74
2022/12/25 05:49:21;;;;;;;3.00;2.10;;;;;;;7.80;64.49;95149.06;4177925;28;20072;-76
2022/12/25 05:51:22;;;;;;;4.70;2.35;;;;;;;7.84;64.19;95150.47;4177832;28;20084;-76
2022/12/25 05:53:24;;;;;;;4.00;2.20;;;;;;;7.84;63.65;95149.63;4164136;28;20060;-75
2022/12/25 05:55:26;;;;;;;3.42;2.20;;;;;;;7.87;63.91;95163.25;4177179;28;20081;-75
2022/12/25 05:57:28;;;;;;;3.10;2.00;;;;;;;7.84;64.03;95160.88;4177424;28;20065;-75
2022/12/25 05:59:31;;;;;;;5.05;1.95;;;;;;;7.90;63.81;95157.75;4176367;28;20049;-76
2022/12/25 06:01:33;;;;;;;5.35;1.90;;;;;;;7.94;63.11;95160.94;4177229;28;20060;-75
2022/12/25 06:03:35;;;;;;;5.75;2.17;;;;;;;7.97;63.13;95166.69;4174592;28;20053;-75
2022/12/25 06:05:38;;;;;;;3.72;2.00;;;;;;;7.98;63.15;95178.00;4166305;28;20065;-73
2022/12/25 06:07:40;;;;;;;4.70;2.05;;;;;;;7.96;62.76;95175.50;4176910;28;20069;-74
2022/12/25 06:09:42;;;;;;;4.80;2.63;;;;;;;7.99;63.02;95180.44;4159482;28;20049;-74
2022/12/25 06:11:44;;;;;;;3.03;1.95;;;;;;;8.01;62.72;95167.28;4178037;28;20445;-75
2022/12/25 06:13:49;;;;;;;5.15;2.38;;;;;;;8.11;63.00;95175.13;4164157;28;20106;-76
2022/12/25 06:15:51;;;;;;;5.95;2.10;;;;;;;8.08;62.45;95178.81;4173391;28;20122;-73
2022/12/25 06:17:53;;;;;;;6.60;2.58;;;;;;;7.99;62.61;95180.44;4175956;28;20110;-75
2022/12/25 06:19:55;;;;;;;4.65;2.00;;;;;;;8.01;63.00;95182.94;4175691;28;20118;-76
2022/12/25 06:21:56;;;;;;;5.30;2.17;;;;;;;8.08;62.77;95197.09;4167977;28;20052;-75
2022/12/25 06:23:59;;;;;;;3.90;2.25;;;;;;;8.11;62.73;95190.78;4174572;28;20413;-77
2022/12/25 06:26:05;;;;;;;7.05;2.13;;;;;;;8.11;62.91;95189.03;4174879;28;20079;-74
2022/12/25 06:28:07;;;;;;;3.65;1.88;;;;;;;8.16;62.08;95194.66;4177417;28;20118;-75
2022/12/25 06:30:09;;;;;;;6.63;2.30;;;;;;;8.21;62.61;95197.69;4158002;28;20057;-76
2022/12/25 06:32:11;;;;;;;4.78;2.30;;;;;;;8.35;61.97;95196.50;4174331;28;20054;-75
2022/12/25 06:34:15;;;;;;;5.18;2.92;;;;;;;8.76;61.28;95197.31;4178493;28;20053;-76
2022/12/25 06:36:19;;;;;;;6.60;3.80;;;;;;;9.29;59.47;95196.09;4183178;28;20180;-76
2022/12/25 06:38:21;;;;;;;5.60;3.10;;;;;;;9.59;58.80;95200.31;4179671;28;20068;-74
2022/12/25 06:40:23;;;;;;;8.43;2.80;;;;;;;10.09;57.39;95200.97;4174939;28;20045;-75
2022/12/25 06:42:25;;;;;;;3.67;2.30;;;;;;;10.42;55.99;95210.13;4175095;28;20064;-77
2022/12/25 06:44:26;;;;;;;5.72;2.03;;;;;;;10.14;56.46;95206.63;4175032;28;20052;-74
2022/12/25 06:46:29;;;;;;;3.72;1.92;;;;;;;9.93;57.32;95210.28;4173161;28;20054;-73
2022/12/25 06:48:34;;;;;;;3.40;1.50;;;;;;;9.69;57.97;95210.75;4176471;28;20423;-78
2022/12/25 06:50:42;;;;;;;3.15;1.60;;;;;;;9.64;58.39;95226.06;4158950;28;20147;-75
2022/12/25 06:52:44;;;;;;;3.13;1.80;;;;;;;9.64;58.58;95226.06;4176985;28;20064;-77
2022/12/25 06:54:46;;;;;;;3.83;2.00;;;;;;;9.41;59.41;95228.97;4177007;28;20467;-77
2022/12/25 06:56:48;;;;;;;3.78;1.88;;;;;;;9.29;59.58;95229.25;4173230;28;20067;-78
2022/12/25 06:58:56;;;;;;;3.20;1.90;;;;;;;9.20;59.69;95228.28;4158392;28;20083;-75
2022/12/25 07:00:57;;;;;;;7.05;2.20;;;;;;;9.25;60.06;95239.16;4176061;28;20412;-76
2022/12/25 07:02:59;;;;;;;3.85;2.10;;;;;;;9.17;60.28;95232.00;4172916;28;20558;-75
2022/12/25 07:05:02;;;;;;;3.30;1.50;;;;;;;9.21;60.60;95249.06;4167806;28;20061;-74
2022/12/25 07:07:06;;;;;;;4.83;1.80;;;;;;;9.17;60.08;95254.72;4176817;28;20049;-73
2022/12/25 07:09:09;;;;;;;3.65;2.40;;;;;;;9.07;60.83;95249.44;4157540;28;20065;-77
2022/12/25 07:11:11;;;;;;;4.95;2.05;;;;;;;9.07;60.55;95256.47;4161333;28;20119;-75
2022/12/25 07:13:13;;;;;;;5.03;2.22;;;;;;;9.11;60.03;95250.03;4164634;28;20125;-77
2022/12/25 07:15:15;;;;;;;3.75;1.98;;;;;;;9.16;60.66;95258.25;4164913;28;20053;-76
2022/12/25 07:17:18;;;;;;;3.17;1.70;;;;;;;9.18;59.99;95256.34;4163139;28;20083;-74
2022/12/25 07:19:20;;;;;;;3.78;1.88;;;;;;;9.16;60.67;95259.13;4171724;28;20119;-75
2022/12/25 07:21:21;;;;;;;3.42;1.95;;;;;;;9.14;60.32;95255.81;4170433;28;20567;-75
2022/12/25 07:23:23;;;;;;;3.60;1.90;;;;;;;9.17;60.63;95265.16;4168676;28;20057;-75
2022/12/25 07:25:25;;;;;;;4.00;2.50;;;;;;;9.20;60.80;95264.88;4175699;28;20489;-76
2022/12/25 07:27:30;;;;;;;3.53;1.80;;;;;;;9.14;60.93;95260.19;4170442;28;20046;-75
2022/12/25 07:29:31;;;;;;;2.95;1.90;;;;;;;9.27;60.38;95265.16;4160573;28;20092;-74
2022/12/25 07:31:33;;;;;;;2.60;1.60;;;;;;;9.28;59.96;95257.19;4162045;28;20141;-76
2022/12/25 07:33:35;;;;;;;3.72;1.50;;;;;;;9.21;60.49;95277.00;4172977;28;20061;-75
2022/12/25 07:35:37;;;;;;;2.92;1.92;;;;;;;9.33;60.18;95268.03;4161403;28;20373;-73
2022/12/25 07:37:39;;;;;;;5.90;2.40;;;;;;;9.35;60.55;95279.19;4170420;28;20060;-76
2022/12/25 07:39:40;;;;;;;5.65;1.95;;;;;;;9.32;60.44;95271.63;4176257;28;20215;-76
2022/12/25 07:41:43;;;;;;;4.03;1.88;;;;;;;9.26;60.50;95277.41;4145766;28;20115;-75
2022/12/25 07:43:48;;;;;;;4.65;1.92;;;;;;;9.37;60.39;95292.13;4176481;28;20566;-74
2022/12/25 07:45:58;;;;;;;3.25;1.67;;;;;;;9.39;59.82;95296.25;4158205;28;20072;-74
2022/12/25 07:47:59;;;;;;;3.65;1.52;;;;;;;9.35;60.49;95300.09;4158008;28;20065;-75
2022/12/25 07:50:06;;;;;;;3.75;1.83;;;;;;;9.49;60.58;95295.47;4171092;28;20295;-84
2022/12/25 07:52:10;;;;;;;3.60;1.77;;;;;;;9.53;60.23;95291.56;4173655;28;20053;-75
2022/12/25 07:54:12;;;;;;;7.65;2.03;;;;;;;9.58;59.54;95310.31;4169228;28;20049;-80
2022/12/25 07:56:19;;;;;;;4.63;1.88;;;;;;;9.46;60.31;95303.56;4168047;28;20464;-78
2022/12/25 07:58:21;;;;;;;4.18;1.85;;;;;;;9.57;60.15;95306.88;4152822;28;20050;-79
2022/12/25 08:00:28;;;;;;;4.55;2.08;;;;;;;9.62;60.19;95302.06;4162459;28;20420;-77
2022/12/25 08:02:30;;;;;;;3.28;1.88;;;;;;;9.64;60.14;95304.53;4172610;28;20044;-81
2022/12/25 08:04:32;;;;;;;4.47;1.92;;;;;;;9.73;59.80;95306.31;4171190;28;20075;-81
2022/12/25 08:06:34;;;;;;;4.22;2.15;;;;;;;9.75;59.50;95311.41;4168970;28;20049;-81
2022/12/25 08:08:37;;;;;;;5.35;2.63;;;;;;;9.84;59.18;95316.63;4163193;28;20061;-79
2022/12/25 08:10:45;;;;;;;5.15;2.08;;;;;;;9.77;59.57;95326.00;4176231;28;20064;-76
2022/12/25 08:12:46;;;;;;;3.45;1.95;;;;;;;9.83;59.21;95319.41;4154182;28;20433;-79
2022/12/25 08:14:48;;;;;;;5.15;1.90;;;;;;;9.74;60.12;95310.56;4174473;28;20118;-79
2022/12/25 08:16:50;;;;;;;7.43;1.90;;;;;;;9.94;59.41;95323.66;4166965;28;20045;-77
2022/12/25 08:18:52;;;;;;;7.15;2.22;;;;;;;9.94;59.56;95313.19;4168556;28;20053;-80
2022/12/25 08:20:54;;;;;;;4.63;1.88;;;;;;;9.93;59.34;95312.34;4164716;28;20071;-79
2022/12/25 08:22:56;;;;;;;4.43;1.83;;;;;;;9.95;58.91;95314.81;4170081;28;20534;-81
2022/12/25 08:24:57;;;;;;;3.95;1.90;;;;;;;10.19;59.18;95312.56;4150202;28;20199;-80
2022/12/25 08:26:59;;;;;;;4.70;2.45;;;;;;;10.28;58.33;95312.69;4164403;28;20201;-79
2022/12/25 08:29:01;;;;;;;4.68;1.80;;;;;;;10.35;57.90;95321.69;4171233;28;20052;-79
2022/12/25 08:31:08;;;;;;;4.05;1.95;;;;;;;10.38;58.19;95301.25;4172471;28;20453;-84
2022/12/25 08:33:09;;;;;;;3.28;1.88;;;;;;;10.35;57.95;95298.09;4172506;28;20470;-80
2022/12/25 08:35:11;;;;;;;2.85;1.80;;;;;;;10.48;57.45;95305.66;4171958;28;20557;-80
2022/12/25 08:37:13;;;;;;;4.60;1.80;;;;;;;10.52;57.52;95296.50;4166692;28;20380;-80
2022/12/25 08:39:15;;;;;;;3.47;1.90;;;;;;;10.62;57.67;95307.78;4152198;28;20136;-79
2022/12/25 08:41:17;;;;;;;3.72;1.90;;;;;;;10.74;57.20;95309.25;4177763;28;20049;-78
2022/12/25 08:43:18;;;;;;;4.85;1.50;;;;;;;10.61;57.31;95321.88;4178398;28;20459;-79
2022/12/25 08:45:20;;;;;;;3.35;1.80;;;;;;;10.71;57.17;95314.78;4169612;28;20135;-79
2022/12/25 08:47:22;;;;;;;4.68;2.25;;;;;;;10.92;57.17;95318.97;4169615;28;20057;-78
2022/12/25 08:49:26;;;;;;;5.03;2.28;;;;;;;10.76;57.16;95330.09;4167666;28;20063;-79
2022/12/25 08:51:28;;;;;;;5.15;2.53;;;;;;;10.77;57.04;95324.69;4165318;28;20107;-79
2022/12/25 08:53:30;;;;;;;3.03;1.80;;;;;;;10.85;57.15;95329.22;4167966;28;20058;-77
2022/12/25 08:55:31;;;;;;;3.67;1.90;;;;;;;10.88;56.83;95325.47;4167239;28;20510;-83
2022/12/25 08:57:33;;;;;;;3.28;1.52;;;;;;;10.97;56.64;95308.84;4165817;28;20053;-82
2022/12/25 08:59:35;;;;;;;3.05;1.52;;;;;;;11.05;56.30;95322.06;4164691;28;20060;-78
2022/12/25 09:01:37;;;;;;;4.22;2.03;;;;;;;11.22;56.46;95318.63;4154851;28;20057;-78
2022/12/25 09:03:38;;;;;;;3.85;2.15;;;;;;;11.19;55.96;95318.94;4176278;28;20110;-82
2022/12/25 09:05:40;;;;;;;4.43;2.25;;;;;;;11.27;56.29;95321.66;4175509;28;20102;-79
2022/12/25 09:07:42;;;;;;;5.63;2.05;;;;;;;11.27;56.12;95319.03;4157473;28;20061;-80
2022/12/25 09:09:44;;;;;;;3.28;1.50;;;;;;;11.35;55.99;95323.53;4175909;28;20045;-79
2022/12/25 09:11:48;;;;;;;4.45;2.38;;;;;;;11.33;56.04;95319.41;4159661;28;20456;-83
2022/12/25 09:13:49;;;;;;;4.57;2.50;;;;;;;11.30;55.82;95311.84;4147218;28;20136;-79
2022/12/25 09:15:51;;;;;;;5.38;2.15;;;;;;;11.03;56.38;95322.22;4166787;28;20060;-82
2022/12/25 09:17:54;;;;;;;5.63;2.00;;;;;;;11.29;56.05;95324.13;4158714;28;20057;-85
2022/12/25 09:19:55;;;;;;;4.45;1.85;;;;;;;11.43;55.48;95318.38;4178885;28;20125;-76
2022/12/25 09:21:57;;;;;;;3.88;2.08;;;;;;;11.59;54.97;95316.88;4165163;28;20049;-75
2022/12/25 09:23:59;;;;;;;4.60;1.65;;;;;;;11.28;55.17;95309.38;4170243;28;20114;-77
2022/12/25 09:26:01;;;;;;;2.53;1.50;;;;;;;11.31;55.20;95319.56;4170522;28;20057;-78
2022/12/25 09:28:03;;;;;;;5.47;1.87;;;;;;;11.45;54.89;95319.03;4176552;28;20125;-78
2022/12/25 09:30:06;;;;;;;4.15;1.67;;;;;;;11.48;54.26;95312.66;4163907;28;20057;-80
2022/12/25 09:32:08;;;;;;;4.65;1.80;;;;;;;11.51;54.33;95316.78;4182596;28;20053;-78
2022/12/25 09:34:10;;;;;;;3.75;1.70;;;;;;;11.71;53.58;95315.69;4170284;28;20133;-76
2022/12/25 09:36:22;;;;;;;5.80;1.80;;;;;;;11.73;53.48;95308.47;4177149;28;20052;-81
2022/12/25 09:38:24;;;;;;;3.58;1.90;;;;;;;11.90;53.56;95319.97;4158524;28;20432;-78
2022/12/25 09:40:29;;;;;;;3.70;1.58;;;;;;;12.05;52.89;95312.38;4155716;28;20131;-72
2022/12/25 09:42:33;;;;;;;3.75;1.65;;;;;;;12.09;52.40;95303.22;4150731;28;20049;-74
2022/12/25 09:44:41;;;;;;;5.85;1.80;;;;;;;11.60;53.41;95300.97;4168187;28;20817;-75
2022/12/25 09:46:50;;;;;;;4.47;1.77;;;;;;;11.17;54.67;95306.97;4163408;28;20108;-75
2022/12/25 09:49:31;;;;;;;5.97;1.63;;;;;;;11.20;54.46;95304.03;4179555;28;20402;-76
2022/12/25 09:51:34;;;;;;;5.35;2.38;;;;;;;11.53;53.41;95305.19;4164307;28;20056;-76
2022/12/25 09:53:39;;;;;;;3.45;1.75;;;;;;;11.81;53.13;95305.94;4178643;28;20056;-76
2022/12/25 09:56:00;;;;;;;4.97;2.40;;;;;;;11.78;53.13;95294.91;4167182;28;20107;-75
2022/12/25 09:58:11;;;;;;;6.30;1.80;;;;;;;11.81;53.27;95302.47;4154326;28;20149;-75
2022/12/25 10:00:15;;;;;;;4.32;1.75;;;;;;;11.64;53.40;95296.28;4149367;28;20057;-75
2022/12/25 10:02:41;;;;;;;3.55;1.63;;;;;;;11.75;52.51;95293.41;4162172;28;20060;-73
2022/12/25 10:05:16;;;;;;;3.13;1.40;;;;;;;11.96;52.26;95292.25;4167918;28;20045;-75
2022/12/25 10:07:45;;;;;;;3.83;1.52;;;;;;;11.78;52.27;95287.84;4158489;28;20064;-76
2022/12/25 10:10:29;;;;;;;4.97;1.60;;;;;;;11.40;52.91;95287.19;4172889;28;20076;-75
2022/12/25 10:12:41;;;;;;;4.05;2.00;;;;;;;10.92;54.87;95298.00;4178255;28;20049;-75
2022/12/25 10:15:08;;;;;;;4.57;1.80;;;;;;;10.85;55.00;95303.81;4159717;28;20299;-74
2022/12/25 10:17:51;;;;;;;5.28;2.40;;;;;;;11.22;54.72;95297.66;4173913;28;20145;-75
2022/12/25 10:20:17;;;;;;;3.35;1.40;;;;;;;11.69;53.19;95289.56;4176003;28;20459;-75
2022/12/25 10:22:26;;;;;;;2.88;1.45;;;;;;;11.79;52.35;95291.31;4166164;28;20455;-74
2022/12/25 10:24:51;;;;;;;3.58;1.45;;;;;;;11.84;52.29;95286.41;4159333;28;20058;-74
2022/12/25 10:26:54;;;;;;;4.57;1.92;;;;;;;11.57;52.82;95290.81;4154823;28;20203;-74
2022/12/25 10:29:08;;;;;;;3.90;1.95;;;;;;;11.44;53.33;95295.56;4157261;28;20104;-75
2022/12/25 10:31:22;;;;;;;4.13;2.05;;;;;;;11.45;53.68;95287.56;4158453;28;20358;-76
2022/12/25 10:33:24;;;;;;;5.63;1.67;;;;;;;11.54;53.19;95279.78;4177448;28;20064;-76
2022/12/25 10:35:27;;;;;;;3.78;1.30;;;;;;;11.73;52.72;95279.59;4159303;28;20103;-74
2022/12/25 10:37:29;;;;;;;3.33;1.35;;;;;;;11.43;53.18;95289.50;4176359;28;20065;-76
2022/12/25 10:39:31;;;;;;;8.32;2.00;;;;;;;11.22;53.77;95287.16;4177105;28;20060;-73
2022/12/25 10:41:57;;;;;;;4.80;1.80;;;;;;;11.30;54.46;95291.69;4157727;28;20131;-74
2022/12/25 10:43:59;;;;;;;3.53;1.70;;;;;;;11.52;53.67;95290.41;4169493;28;20098;-72
2022/12/25 10:46:08;;;;;;;2.20;1.35;;;;;;;11.63;53.19;95294.59;4164814;28;20119;-74
2022/12/25 10:48:24;;;;;;;5.28;1.50;;;;;;;11.81;53.14;95292.81;4136622;28;20069;-74
2022/12/25 10:50:27;;;;;;;2.10;1.30;;;;;;;11.85;52.36;95309.06;4170350;28;20059;-74
2022/12/25 10:52:29;;;;;;;3.80;1.40;;;;;;;12.04;52.25;95294.97;4172158;28;20645;-74
2022/12/25 10:54:34;;;;;;;3.78;1.30;;;;;;;11.96;51.83;95284.38;4158188;28;20053;-74
2022/12/25 10:56:36;;;;;;;3.28;1.30;;;;;;;12.06;51.93;95293.00;4171110;28;20052;-75
2022/12/25 10:58:37;;;;;;;2.35;1.10;;;;;;;12.07;51.87;95286.78;4174049;28;20519;-73
2022/12/25 11:00:39;;;;;;;3.13;1.38;;;;;;;12.11;52.00;95289.91;4173357;28;20061;-74
2022/12/25 11:02:41;;;;;;;3.50;1.30;;;;;;;12.19;52.21;95282.09;4163576;28;20067;-75
2022/12/25 11:04:43;;;;;;;4.82;1.60;;;;;;;12.35;51.52;95286.63;4173520;28;20053;-75
2022/12/25 11:06:55;;;;;;;4.65;1.30;;;;;;;12.41;51.64;95291.25;4176406;28;20412;-75
2022/12/25 11:08:59;;;;;;;4.03;1.30;;;;;;;12.13;52.45;95283.56;4157659;28;20138;-74
2022/12/25 11:11:04;;;;;;;3.38;1.60;;;;;;;12.21;51.96;95288.84;4163100;28;20095;-75
2022/12/25 11:13:18;;;;;;;2.08;1.27;;;;;;;12.29;51.97;95290.69;4158567;28;20057;-74
2022/12/25 11:15:39;;;;;;;2.13;1.30;;;;;;;12.33;51.77;95283.34;4158285;28;20061;-73
2022/12/25 11:17:47;;;;;;;5.05;2.20;;;;;;;12.52;51.78;95280.50;4165841;28;20107;-75
2022/12/25 11:19:57;;;;;;;4.07;1.60;;;;;;;12.52;51.01;95285.75;4176898;28;20254;-72
2022/12/25 11:22:00;;;;;;;2.80;1.30;;;;;;;12.49;51.03;95286.03;4175601;28;20061;-75
2022/12/25 11:24:20;;;;;;;4.75;1.58;;;;;;;12.14;51.50;95300.13;4172578;28;20049;-74
2022/12/25 11:26:22;;;;;;;3.08;1.33;;;;;;;11.85;52.42;95295.94;4141356;28;20294;-74
2022/12/25 11:28:26;;;;;;;2.92;1.42;;;;;;;11.20;54.45;95307.47;4155424;28;20085;-74
2022/12/25 11:30:29;;;;;;;3.08;1.40;;;;;;;11.54;54.12;95292.88;4161166;28;20076;-74
2022/12/25 11:32:36;;;;;;;4.57;1.63;;;;;;;11.72;53.61;95291.06;4160755;28;20493;-73
2022/12/25 11:34:46;;;;;;;2.85;1.70;;;;;;;11.87;52.76;95296.59;4172513;28;20057;-74
2022/12/25 11:36:49;;;;;;;2.05;1.20;;;;;;;11.92;52.42;95294.38;4163162;28;20049;-73
2022/12/25 11:38:51;;;;;;;2.45;1.30;;;;;;;12.13;51.97;95294.06;4150410;28;20567;-75